Time;durP1;ratioP1;P1;durP2;ratioP2;P2;SDS_P1;SDS_P2;PMS_P1;PMS_P2;Temp;Humidity;BMP_temperature;BMP_pressure;BME280_temperature;BME280_humidity;BME280_pressure;Samples;Min_cycle;Max_cycle;Signal;HPM_P1;HPM_P2
2022/09/20 00:02:26;;;;;;;;;;;28.00;95.20;;;;;;5148781;27;19919;-57
2022/09/20 00:04:53;;;;;;;;;;;28.10;95.30;;;;;;5148780;27;19916;-62
2022/09/20 00:07:19;;;;;;;;;;;28.00;95.40;;;;;;5148438;27;19928;-57
2022/09/20 00:09:45;;;;;;;;;;;28.00;95.40;;;;;;5148377;27;19919;-58
2022/09/20 00:12:11;;;;;;;;;;;28.00;95.30;;;;;;5148307;27;19907;-59
2022/09/20 00:14:37;;;;;;;;;;;28.00;95.00;;;;;;5148620;27;19952;-57
2022/09/20 00:17:03;;;;;;;;;;;28.00;95.10;;;;;;5147851;27;20148;-58
2022/09/20 00:19:29;;;;;;;;;;;28.00;95.10;;;;;;5148465;27;19920;-60
2022/09/20 00:21:55;;;;;;;;;;;27.90;95.20;;;;;;5148705;27;19943;-57
2022/09/20 00:24:22;;;;;;;;;;;27.90;95.40;;;;;;5148879;27;20107;-58
2022/09/20 00:26:48;;;;;;;;;;;27.90;95.60;;;;;;5141979;27;19971;-58
2022/09/20 00:29:14;;;;;;;;;;;27.90;95.60;;;;;;5126305;28;19949;-61
2022/09/20 00:31:41;;;;;;;;;;;27.90;95.70;;;;;;5126142;28;20096;-59
2022/09/20 00:36:52;;;;;;;;;;;27.90;95.50;;;;;;5126055;28;20100;-57
2022/09/20 00:39:19;;;;;;;;;;;27.90;95.50;;;;;;5125139;28;19920;-59
2022/09/20 00:41:45;;;;;;;;;;;27.90;95.60;;;;;;5126327;28;19908;-55
2022/09/20 00:44:29;;;;;;;;;;;27.90;95.60;;;;;;5126189;28;19962;-58
2022/09/20 00:46:56;;;;;;;;;;;27.90;95.60;;;;;;5123694;28;19912;-58
2022/09/20 00:49:25;;;;;;;;;;;27.80;95.60;;;;;;5126479;28;19961;-57
2022/09/20 00:51:55;;;;;;;;;;;27.80;95.60;;;;;;5123510;28;19912;-58
2022/09/20 00:54:21;;;;;;;;;;;27.80;95.70;;;;;;5125525;28;19978;-58
2022/09/20 00:56:48;;;;;;;;;;;27.80;95.70;;;;;;5125489;28;19918;-62
2022/09/20 00:59:16;;;;;;;;;;;27.70;95.60;;;;;;5113018;28;20139;-61
2022/09/20 01:01:44;;;;;;;;;;;27.80;95.60;;;;;;5122042;28;19924;-60
2022/09/20 01:04:10;;;;;;;;;;;27.80;95.50;;;;;;5125713;28;19919;-63
2022/09/20 01:06:37;;;;;;;;;;;27.80;95.40;;;;;;5124435;28;19967;-63
2022/09/20 01:09:06;;;;;;;;;;;27.80;95.50;;;;;;5125878;28;20202;-63
2022/09/20 01:11:33;;;;;;;;;;;27.80;95.50;;;;;;5125950;28;19909;-61
2022/09/20 01:14:00;;;;;;;;;;;27.70;95.40;;;;;;5126925;28;19911;-63
2022/09/20 01:16:27;;;;;;;;;;;27.70;95.40;;;;;;5126180;28;19911;-61
2022/09/20 01:18:56;;;;;;;;;;;27.70;95.40;;;;;;5127091;28;19911;-63
2022/09/20 01:21:22;;;;;;;;;;;27.70;95.50;;;;;;5126602;28;19907;-60
2022/09/20 01:24:09;;;;;;;;;;;27.80;95.50;;;;;;5126225;28;19982;-58
2022/09/20 01:26:41;;;;;;;;;;;27.80;95.70;;;;;;5126338;28;19911;-59
2022/09/20 01:29:12;;;;;;;;;;;27.80;95.70;;;;;;5125596;28;19957;-57
2022/09/20 01:31:58;;;;;;;;;;;27.70;95.70;;;;;;5123245;28;19907;-63
2022/09/20 01:34:35;;;;;;;;;;;27.70;95.70;;;;;;5105417;28;19913;-61
2022/09/20 01:37:31;;;;;;;;;;;27.70;95.70;;;;;;5113167;28;19911;-63
2022/09/20 01:40:03;;;;;;;;;;;27.70;95.60;;;;;;5092490;28;19995;-62
2022/09/20 01:42:35;;;;;;;;;;;27.70;95.60;;;;;;5120163;28;19908;-62
2022/09/20 01:45:01;;;;;;;;;;;27.70;95.60;;;;;;5114088;28;19912;-62
2022/09/20 01:47:35;;;;;;;;;;;27.70;95.60;;;;;;5121246;28;19914;-62
2022/09/20 01:50:29;;;;;;;;;;;27.70;95.60;;;;;;5106155;28;19912;-61
2022/09/20 01:52:55;;;;;;;;;;;27.70;95.70;;;;;;5112167;28;19908;-62
2022/09/20 01:55:35;;;;;;;;;;;27.70;95.70;;;;;;5125892;28;19912;-61
2022/09/20 01:58:08;;;;;;;;;;;27.70;95.70;;;;;;5125829;28;20138;-61
2022/09/20 02:00:34;;;;;;;;;;;27.70;95.70;;;;;;5125696;28;19918;-62
2022/09/20 02:03:04;;;;;;;;;;;27.60;95.70;;;;;;5124249;28;19915;-60
2022/09/20 02:05:47;;;;;;;;;;;27.70;95.80;;;;;;5126165;28;19943;-60
2022/09/20 02:08:29;;;;;;;;;;;27.60;95.70;;;;;;5111940;28;19947;-60
2022/09/20 02:11:07;;;;;;;;;;;27.60;95.60;;;;;;5118787;28;19935;-60
2022/09/20 02:13:39;;;;;;;;;;;27.60;95.70;;;;;;5125549;28;19924;-61
2022/09/20 02:16:12;;;;;;;;;;;27.60;95.70;;;;;;5114070;27;19912;-60
2022/09/20 02:18:56;;;;;;;;;;;27.60;95.60;;;;;;5107155;28;19953;-59
2022/09/20 02:21:34;;;;;;;;;;;27.50;95.50;;;;;;5125544;27;19908;-60
2022/09/20 02:24:18;;;;;;;;;;;27.50;95.50;;;;;;5104745;28;20062;-66
2022/09/20 02:27:03;;;;;;;;;;;27.50;95.50;;;;;;5123707;28;19908;-67
2022/09/20 02:29:34;;;;;;;;;;;27.50;95.50;;;;;;5109845;27;19912;-67
2022/09/20 02:32:19;;;;;;;;;;;27.50;95.40;;;;;;5127402;27;19907;-67
2022/09/20 02:34:59;;;;;;;;;;;27.50;95.40;;;;;;5125186;27;19916;-67
2022/09/20 02:37:48;;;;;;;;;;;27.50;95.30;;;;;;5114774;28;19919;-65
2022/09/20 02:40:20;;;;;;;;;;;27.50;95.20;;;;;;5115991;27;19950;-65
2022/09/20 02:42:56;;;;;;;;;;;27.60;95.20;;;;;;5145613;27;20229;-66
2022/09/20 02:45:34;;;;;;;;;;;27.60;95.20;;;;;;5145943;27;19912;-66
2022/09/20 02:48:02;;;;;;;;;;;27.60;95.10;;;;;;5145486;27;20007;-66
2022/09/20 02:50:37;;;;;;;;;;;27.60;95.10;;;;;;5124320;27;19955;-65
2022/09/20 02:53:06;;;;;;;;;;;27.60;95.10;;;;;;5122677;28;20211;-65
2022/09/20 02:55:32;;;;;;;;;;;27.60;95.10;;;;;;5121924;27;19912;-65
2022/09/20 02:58:24;;;;;;;;;;;27.60;95.00;;;;;;5120838;28;19909;-64
2022/09/20 03:00:54;;;;;;;;;;;27.60;94.90;;;;;;5077850;28;19918;-65
2022/09/20 03:03:29;;;;;;;;;;;27.60;94.90;;;;;;5124535;28;19908;-65
2022/09/20 03:05:59;;;;;;;;;;;27.60;94.90;;;;;;5121496;28;19908;-65
2022/09/20 03:08:35;;;;;;;;;;;27.60;94.80;;;;;;5126644;28;19930;-66
2022/09/20 03:11:05;;;;;;;;;;;27.60;94.80;;;;;;5144933;28;19907;-65
2022/09/20 03:13:34;;;;;;;;;;;27.60;94.70;;;;;;5128876;28;20223;-66
2022/09/20 03:16:03;;;;;;;;;;;27.60;94.70;;;;;;5128957;28;19912;-68
2022/09/20 03:18:41;;;;;;;;;;;27.60;94.70;;;;;;5124641;28;19914;-66
2022/09/20 03:21:25;;;;;;;;;;;27.60;94.70;;;;;;5141495;28;19914;-67
2022/09/20 03:23:54;;;;;;;;;;;27.60;94.90;;;;;;5126525;28;19911;-65
2022/09/20 03:26:27;;;;;;;;;;;27.60;94.70;;;;;;5145035;28;20191;-66
2022/09/20 03:29:02;;;;;;;;;;;27.70;94.70;;;;;;5145198;28;20017;-65
2022/09/20 03:31:46;;;;;;;;;;;27.60;94.70;;;;;;5123846;28;19938;-66
2022/09/20 03:34:12;;;;;;;;;;;27.60;94.70;;;;;;5114775;28;19912;-65
2022/09/20 03:36:38;;;;;;;;;;;27.60;94.80;;;;;;5133884;28;19915;-66
2022/09/20 03:39:23;;;;;;;;;;;27.60;94.80;;;;;;5114419;28;19912;-66
2022/09/20 03:42:00;;;;;;;;;;;27.60;94.80;;;;;;5112999;28;19908;-66
2022/09/20 03:44:37;;;;;;;;;;;27.60;94.80;;;;;;5124402;28;20029;-66
2022/09/20 03:47:12;;;;;;;;;;;27.60;94.80;;;;;;5100011;28;19943;-67
2022/09/20 03:49:57;;;;;;;;;;;27.60;94.80;;;;;;5128885;28;19954;-66
2022/09/20 03:52:40;;;;;;;;;;;27.60;94.80;;;;;;5144692;28;19914;-66
2022/09/20 03:55:19;;;;;;;;;;;27.60;94.80;;;;;;5145091;28;20229;-66
2022/09/20 03:57:47;;;;;;;;;;;27.60;94.80;;;;;;5144891;28;19911;-66
2022/09/20 04:00:17;;;;;;;;;;;27.60;94.80;;;;;;5129151;28;19912;-66
2022/09/20 04:02:49;;;;;;;;;;;27.60;94.80;;;;;;5104987;28;20201;-65
2022/09/20 04:05:18;;;;;;;;;;;27.60;94.80;;;;;;5123576;28;19912;-66
2022/09/20 04:07:47;;;;;;;;;;;27.60;94.80;;;;;;5108523;28;20163;-65
2022/09/20 04:10:28;;;;;;;;;;;27.60;94.90;;;;;;5109880;28;19912;-66
2022/09/20 04:13:00;;;;;;;;;;;27.60;94.90;;;;;;5126221;28;19979;-64
2022/09/20 04:15:31;;;;;;;;;;;27.60;95.00;;;;;;5126061;28;19919;-67
2022/09/20 04:17:57;;;;;;;;;;;27.60;95.00;;;;;;5127927;28;19912;-66
2022/09/20 04:20:42;;;;;;;;;;;27.60;95.00;;;;;;5127660;28;19915;-67
2022/09/20 04:23:31;;;;;;;;;;;27.60;95.10;;;;;;5127799;28;19908;-67
2022/09/20 04:26:00;;;;;;;;;;;27.70;95.10;;;;;;5127252;28;19919;-67
2022/09/20 04:28:30;;;;;;;;;;;27.60;95.20;;;;;;5127696;28;20152;-66
2022/09/20 04:31:01;;;;;;;;;;;27.60;95.20;;;;;;5127653;28;19914;-66
2022/09/20 04:33:30;;;;;;;;;;;27.60;95.20;;;;;;5127534;28;19912;-67
2022/09/20 04:38:41;;;;;;;;;;;27.60;95.20;;;;;;5127447;28;20018;-66
2022/09/20 04:41:16;;;;;;;;;;;27.60;95.20;;;;;;5109129;28;19949;-66
2022/09/20 04:44:00;;;;;;;;;;;27.60;95.20;;;;;;5127293;28;20188;-66
2022/09/20 04:46:35;;;;;;;;;;;27.60;95.20;;;;;;5127245;28;20138;-65
2022/09/20 04:49:02;;;;;;;;;;;27.60;95.30;;;;;;5127342;28;19911;-64
2022/09/20 04:51:46;;;;;;;;;;;27.60;95.30;;;;;;5127321;28;19987;-65
2022/09/20 04:54:21;;;;;;;;;;;27.60;95.50;;;;;;5125187;28;19942;-66
2022/09/20 04:57:09;;;;;;;;;;;27.60;95.30;;;;;;5107671;28;20085;-65
2022/09/20 04:59:58;;;;;;;;;;;27.60;95.20;;;;;;5126905;28;20241;-64
2022/09/20 05:02:42;;;;;;;;;;;27.60;95.20;;;;;;5079839;28;19915;-64
2022/09/20 05:05:08;;;;;;;;;;;27.60;95.10;;;;;;5108976;28;20085;-65
2022/09/20 05:07:41;;;;;;;;;;;27.60;95.10;;;;;;5127072;28;19907;-65
2022/09/20 05:10:20;;;;;;;;;;;27.60;95.10;;;;;;5127275;28;19970;-66
2022/09/20 05:12:55;;;;;;;;;;;27.60;95.10;;;;;;5126821;28;19908;-66
2022/09/20 05:15:51;;;;;;;;;;;27.50;95.10;;;;;;5127167;28;19978;-65
2022/09/20 05:18:32;;;;;;;;;;;27.60;95.10;;;;;;5125914;28;19934;-66
2022/09/20 05:21:09;;;;;;;;;;;27.50;95.00;;;;;;5126633;28;19907;-66
2022/09/20 05:23:42;;;;;;;;;;;27.50;95.00;;;;;;5120166;28;19918;-66
2022/09/20 05:26:23;;;;;;;;;;;27.50;95.00;;;;;;5088090;28;20204;-65
2022/09/20 05:28:55;;;;;;;;;;;27.50;95.00;;;;;;5106311;28;20171;-66
2022/09/20 05:31:40;;;;;;;;;;;27.50;95.10;;;;;;5105965;28;20205;-65
2022/09/20 05:34:15;;;;;;;;;;;27.50;95.20;;;;;;5105823;28;19963;-65
2022/09/20 05:36:56;;;;;;;;;;;27.50;95.20;;;;;;5085558;28;20007;-66
2022/09/20 05:39:30;;;;;;;;;;;27.50;95.10;;;;;;5085878;28;19913;-66
2022/09/20 05:41:56;;;;;;;;;;;27.50;95.00;;;;;;5085533;28;20090;-66
2022/09/20 05:44:22;;;;;;;;;;;27.50;95.00;;;;;;5085531;28;19913;-66
2022/09/20 05:47:07;;;;;;;;;;;27.50;95.00;;;;;;5085477;28;19904;-66
2022/09/20 05:49:36;;;;;;;;;;;27.50;95.00;;;;;;5085651;28;19916;-66
2022/09/20 05:52:22;;;;;;;;;;;27.50;95.10;;;;;;5085365;28;20254;-66
2022/09/20 05:55:02;;;;;;;;;;;27.50;95.00;;;;;;5085318;28;19913;-66
2022/09/20 05:57:28;;;;;;;;;;;27.50;95.00;;;;;;5085045;28;19912;-66
2022/09/20 06:00:15;;;;;;;;;;;27.40;95.00;;;;;;5085568;28;20208;-65
2022/09/20 06:02:47;;;;;;;;;;;27.40;95.10;;;;;;5084564;28;19909;-66
2022/09/20 06:05:25;;;;;;;;;;;27.40;95.10;;;;;;5085418;28;19919;-66
2022/09/20 06:07:51;;;;;;;;;;;27.40;95.10;;;;;;5085141;28;20211;-65
2022/09/20 06:10:41;;;;;;;;;;;27.40;95.10;;;;;;5085354;28;19991;-66
2022/09/20 06:13:25;;;;;;;;;;;27.40;95.10;;;;;;5079377;28;19954;-67
2022/09/20 06:15:59;;;;;;;;;;;27.50;95.20;;;;;;5084774;28;19913;-66
2022/09/20 06:18:27;;;;;;;;;;;27.40;95.20;;;;;;5084754;28;19908;-67
2022/09/20 06:20:59;;;;;;;;;;;27.40;95.20;;;;;;5084783;28;19917;-66
2022/09/20 06:23:25;;;;;;;;;;;27.40;95.20;;;;;;5084802;28;20010;-67
2022/09/20 06:25:55;;;;;;;;;;;27.40;95.20;;;;;;5084597;28;20044;-66
2022/09/20 06:28:40;;;;;;;;;;;27.40;95.20;;;;;;5084644;28;19908;-66
2022/09/20 06:31:07;;;;;;;;;;;27.40;95.20;;;;;;5083667;28;19912;-65
2022/09/20 06:33:39;;;;;;;;;;;27.40;95.20;;;;;;5084586;28;20042;-66
2022/09/20 06:41:44;;;;;;;;;;;27.40;95.30;;;;;;5104718;28;20138;-66
2022/09/20 06:44:10;;;;;;;;;;;27.40;95.20;;;;;;5104876;28;19912;-66
2022/09/20 06:46:37;;;;;;;;;;;27.30;95.20;;;;;;5104611;28;19908;-66
2022/09/20 06:49:03;;;;;;;;;;;27.30;95.10;;;;;;5104605;28;19983;-66
2022/09/20 06:51:33;;;;;;;;;;;27.30;95.10;;;;;;5104875;28;19908;-67
2022/09/20 06:54:01;;;;;;;;;;;27.30;95.10;;;;;;5104694;28;19912;-65
2022/09/20 06:56:30;;;;;;;;;;;27.30;95.10;;;;;;5104401;28;19912;-66
2022/09/20 06:58:56;;;;;;;;;;;27.30;95.10;;;;;;5104733;28;19944;-66
2022/09/20 07:01:22;;;;;;;;;;;27.30;95.10;;;;;;5104544;28;20167;-66
2022/09/20 07:03:48;;;;;;;;;;;27.30;95.30;;;;;;5104632;28;19992;-66
2022/09/20 07:06:18;;;;;;;;;;;27.30;95.10;;;;;;5104632;28;20219;-66
2022/09/20 07:08:45;;;;;;;;;;;27.30;95.10;;;;;;5104575;28;19918;-66
2022/09/20 07:11:15;;;;;;;;;;;27.30;95.10;;;;;;5104333;28;19914;-65
2022/09/20 07:13:44;;;;;;;;;;;27.30;95.10;;;;;;5104374;28;19908;-66
2022/09/20 07:16:12;;;;;;;;;;;27.30;95.00;;;;;;5104351;28;20176;-66
2022/09/20 07:18:40;;;;;;;;;;;27.30;95.00;;;;;;5104318;28;20002;-67
2022/09/20 07:21:07;;;;;;;;;;;27.30;95.00;;;;;;5104329;28;20188;-66
2022/09/20 07:23:34;;;;;;;;;;;27.20;94.90;;;;;;5104317;28;19912;-67
2022/09/20 07:26:00;;;;;;;;;;;27.30;94.90;;;;;;5104092;28;19904;-66
2022/09/20 07:28:27;;;;;;;;;;;27.20;94.90;;;;;;5104373;28;20245;-67
2022/09/20 07:30:53;;;;;;;;;;;27.30;94.90;;;;;;5104261;28;20096;-65
2022/09/20 07:33:20;;;;;;;;;;;27.20;94.90;;;;;;5104050;28;19908;-67
2022/09/20 07:35:47;;;;;;;;;;;27.20;94.90;;;;;;5104113;28;19923;-66
2022/09/20 07:38:14;;;;;;;;;;;27.20;95.10;;;;;;5104133;28;19908;-67
2022/09/20 07:40:41;;;;;;;;;;;27.20;94.90;;;;;;5104091;28;19908;-66
2022/09/20 07:43:07;;;;;;;;;;;27.20;94.90;;;;;;5107398;28;19942;-66
2022/09/20 07:45:37;;;;;;;;;;;27.20;94.90;;;;;;5108561;28;19916;-66
2022/09/20 07:48:05;;;;;;;;;;;27.20;94.90;;;;;;5107930;28;19908;-67
2022/09/20 07:50:31;;;;;;;;;;;27.20;94.90;;;;;;5108457;28;19912;-67
2022/09/20 07:52:58;;;;;;;;;;;27.10;94.90;;;;;;5108024;28;19971;-66
2022/09/20 07:55:24;;;;;;;;;;;27.10;94.90;;;;;;5108190;28;20120;-66
2022/09/20 07:57:50;;;;;;;;;;;27.10;94.90;;;;;;5107840;28;19979;-65
2022/09/20 08:00:17;;;;;;;;;;;27.10;94.90;;;;;;5108346;28;19987;-66
2022/09/20 08:02:44;;;;;;;;;;;27.10;95.00;;;;;;5107709;28;19904;-66
2022/09/20 08:05:10;;;;;;;;;;;27.10;95.00;;;;;;5108246;28;19912;-66
2022/09/20 08:07:38;;;;;;;;;;;27.10;94.90;;;;;;5107721;28;19939;-66
2022/09/20 08:10:04;;;;;;;;;;;27.00;94.90;;;;;;5107846;28;19938;-67
2022/09/20 08:12:32;;;;;;;;;;;27.00;94.90;;;;;;5107776;28;19915;-67
2022/09/20 08:14:58;;;;;;;;;;;27.00;95.00;;;;;;5107422;28;19930;-66
2022/09/20 08:17:25;;;;;;;;;;;27.00;95.00;;;;;;5107387;28;19919;-66
2022/09/20 08:19:52;;;;;;;;;;;27.00;95.00;;;;;;5107813;28;19947;-66
2022/09/20 08:22:18;;;;;;;;;;;27.00;95.00;;;;;;5107613;28;19914;-65
2022/09/20 08:24:45;;;;;;;;;;;27.00;94.90;;;;;;5107629;28;19912;-67
2022/09/20 08:27:12;;;;;;;;;;;27.00;94.90;;;;;;5107258;28;19904;-65
2022/09/20 08:29:39;;;;;;;;;;;26.90;94.90;;;;;;5107564;28;19913;-65
2022/09/20 08:32:05;;;;;;;;;;;26.90;94.90;;;;;;5107138;28;19911;-65
2022/09/20 08:34:31;;;;;;;;;;;26.90;94.90;;;;;;5107156;28;19919;-66
2022/09/20 08:36:58;;;;;;;;;;;26.90;94.90;;;;;;5107189;28;19912;-66
2022/09/20 08:39:25;;;;;;;;;;;26.90;94.90;;;;;;5107357;28;19983;-65
2022/09/20 08:42:07;;;;;;;;;;;26.90;94.90;;;;;;5106941;28;19969;-66
2022/09/20 08:44:35;;;;;;;;;;;26.90;94.90;;;;;;5107385;28;20026;-65
2022/09/20 08:47:24;;;;;;;;;;;26.90;94.90;;;;;;5106773;28;19983;-66
2022/09/20 08:49:52;;;;;;;;;;;26.90;94.90;;;;;;5107353;28;19914;-65
2022/09/20 08:52:20;;;;;;;;;;;26.90;94.90;;;;;;5106734;28;19946;-65
2022/09/20 08:54:46;;;;;;;;;;;26.90;94.90;;;;;;5106270;28;19912;-64
2022/09/20 08:57:17;;;;;;;;;;;26.90;94.90;;;;;;5088687;28;19919;-65
2022/09/20 08:59:43;;;;;;;;;;;26.90;94.90;;;;;;5106555;28;20143;-65
2022/09/20 09:02:17;;;;;;;;;;;26.80;94.80;;;;;;5106575;28;19904;-65
2022/09/20 09:04:44;;;;;;;;;;;26.80;94.80;;;;;;5106809;28;20181;-65
2022/09/20 09:07:14;;;;;;;;;;;26.80;94.80;;;;;;5106479;28;19912;-65
2022/09/20 09:09:42;;;;;;;;;;;26.80;94.80;;;;;;5106837;28;19920;-64
2022/09/20 09:12:34;;;;;;;;;;;26.80;94.70;;;;;;5106303;28;19908;-64
2022/09/20 09:15:18;;;;;;;;;;;26.90;94.80;;;;;;5102998;28;19919;-65
2022/09/20 09:17:44;;;;;;;;;;;26.80;94.80;;;;;;5088167;28;20215;-65
2022/09/20 09:20:14;;;;;;;;;;;26.80;94.80;;;;;;5106740;28;19918;-65
2022/09/20 09:22:42;;;;;;;;;;;26.80;94.70;;;;;;5106189;28;19915;-65
2022/09/20 09:25:17;;;;;;;;;;;26.80;94.70;;;;;;5106750;28;19912;-65
2022/09/20 09:27:50;;;;;;;;;;;26.80;94.70;;;;;;5106172;28;19908;-66
2022/09/20 09:30:22;;;;;;;;;;;26.70;94.70;;;;;;5106579;28;19919;-66
2022/09/20 09:32:48;;;;;;;;;;;26.70;94.70;;;;;;5106224;28;19925;-66
2022/09/20 09:35:25;;;;;;;;;;;26.70;94.70;;;;;;5106027;28;19927;-67
2022/09/20 09:38:00;;;;;;;;;;;26.70;94.70;;;;;;5105939;28;19908;-65
2022/09/20 09:40:28;;;;;;;;;;;26.70;94.70;;;;;;5088069;28;20213;-65
2022/09/20 09:42:56;;;;;;;;;;;26.70;94.70;;;;;;5105805;28;19914;-65
2022/09/20 09:45:37;;;;;;;;;;;26.70;94.70;;;;;;5106167;28;19918;-65
2022/09/20 09:48:18;;;;;;;;;;;26.70;94.70;;;;;;5105647;28;19979;-65
2022/09/20 09:50:44;;;;;;;;;;;26.70;94.70;;;;;;5105683;28;20112;-65
2022/09/20 09:53:16;;;;;;;;;;;26.70;94.70;;;;;;5105625;28;20138;-65
2022/09/20 09:55:51;;;;;;;;;;;26.70;94.70;;;;;;5105862;28;19934;-66
2022/09/20 09:58:42;;;;;;;;;;;26.60;94.60;;;;;;5105466;28;19908;-66
2022/09/20 10:01:16;;;;;;;;;;;26.60;94.60;;;;;;5069103;28;19908;-65
2022/09/20 10:03:49;;;;;;;;;;;26.60;94.60;;;;;;5105318;28;19978;-64
2022/09/20 10:06:22;;;;;;;;;;;26.60;94.60;;;;;;5105343;28;19908;-64
2022/09/20 10:09:06;;;;;;;;;;;26.60;94.50;;;;;;5105485;28;20148;-65
2022/09/20 10:11:33;;;;;;;;;;;26.60;94.50;;;;;;5105239;28;19908;-65
2022/09/20 10:14:05;;;;;;;;;;;26.60;94.40;;;;;;5105477;28;20010;-65
2022/09/20 10:16:52;;;;;;;;;;;26.60;94.40;;;;;;5105089;28;19912;-65
2022/09/20 10:19:22;;;;;;;;;;;26.60;94.40;;;;;;5105407;28;19915;-64
2022/09/20 10:21:55;;;;;;;;;;;26.60;94.70;;;;;;5104932;28;19950;-65
2022/09/20 10:24:33;;;;;;;;;;;26.60;94.50;;;;;;5115650;28;19913;-66
2022/09/20 10:27:18;;;;;;;;;;;26.60;94.50;;;;;;5125335;28;19975;-66
2022/09/20 10:29:51;;;;;;;;;;;26.50;94.60;;;;;;5125577;28;19912;-66
2022/09/20 10:32:17;;;;;;;;;;;26.50;94.70;;;;;;5125174;28;19908;-66
2022/09/20 10:34:47;;;;;;;;;;;26.50;94.70;;;;;;5125526;28;19991;-66
2022/09/20 10:37:36;;;;;;;;;;;26.50;94.80;;;;;;5125341;28;19935;-65
2022/09/20 10:40:07;;;;;;;;;;;26.50;94.80;;;;;;5077955;28;19911;-65
2022/09/20 10:45:37;;;;;;;;;;;26.50;94.80;;;;;;5125025;28;19918;-65
2022/09/20 10:48:07;;;;;;;;;;;26.50;94.90;;;;;;5124990;28;19954;-65
2022/09/20 10:50:33;;;;;;;;;;;26.50;94.90;;;;;;5125539;28;19923;-66
2022/09/20 10:53:21;;;;;;;;;;;26.50;94.80;;;;;;5125038;28;19904;-66
2022/09/20 10:55:50;;;;;;;;;;;26.50;94.80;;;;;;5124956;28;19919;-66
2022/09/20 10:58:35;;;;;;;;;;;26.50;94.80;;;;;;5125018;28;19961;-65
2022/09/20 11:01:07;;;;;;;;;;;26.50;94.80;;;;;;5124915;28;19912;-65
2022/09/20 11:03:36;;;;;;;;;;;26.50;94.80;;;;;;5122699;28;19986;-67
2022/09/20 11:06:20;;;;;;;;;;;26.40;94.80;;;;;;5106686;28;19983;-66
2022/09/20 11:08:49;;;;;;;;;;;26.50;94.90;;;;;;5104603;28;19919;-66
2022/09/20 11:11:21;;;;;;;;;;;26.40;94.90;;;;;;5104298;28;19954;-66
2022/09/20 11:14:02;;;;;;;;;;;26.50;94.90;;;;;;5121489;28;19979;-65
2022/09/20 11:16:31;;;;;;;;;;;26.50;94.90;;;;;;5125179;28;19935;-65
2022/09/20 11:19:09;;;;;;;;;;;26.50;94.80;;;;;;5110276;28;20104;-66
2022/09/20 11:21:41;;;;;;;;;;;26.50;94.70;;;;;;5109928;28;19908;-68
2022/09/20 11:24:15;;;;;;;;;;;26.40;94.50;;;;;;5110702;28;20178;-67
2022/09/20 11:26:47;;;;;;;;;;;26.40;94.40;;;;;;5129126;28;19907;-66
2022/09/20 11:29:27;;;;;;;;;;;26.50;94.40;;;;;;5128787;28;19981;-60
2022/09/20 11:31:57;;;;;;;;;;;26.40;94.30;;;;;;5128914;28;19983;-60
2022/09/20 11:34:26;;;;;;;;;;;26.50;94.40;;;;;;5128964;28;19955;-60
2022/09/20 11:37:01;;;;;;;;;;;26.50;94.50;;;;;;5128538;28;19949;-60
2022/09/20 11:39:46;;;;;;;;;;;26.50;94.50;;;;;;5128854;28;20234;-59
2022/09/20 11:42:18;;;;;;;;;;;26.50;94.50;;;;;;5128856;28;19911;-62
2022/09/20 11:44:44;;;;;;;;;;;26.60;94.50;;;;;;5127701;28;19947;-60
2022/09/20 11:47:33;;;;;;;;;;;26.60;94.50;;;;;;5123874;28;19920;-65
2022/09/20 11:50:00;;;;;;;;;;;26.60;94.50;;;;;;5109904;28;20044;-64
2022/09/20 11:53:04;;;;;;;;;;;26.60;94.50;;;;;;5115255;28;19999;-67
2022/09/20 11:55:41;;;;;;;;;;;26.50;94.70;;;;;;5071146;28;19973;-64
2022/09/20 11:58:09;;;;;;;;;;;26.60;94.80;;;;;;5066894;28;19924;-62
2022/09/20 12:00:37;;;;;;;;;;;26.60;94.80;;;;;;5102107;28;19946;-64
2022/09/20 12:03:11;;;;;;;;;;;26.60;94.90;;;;;;5115840;28;19915;-60
2022/09/20 12:05:42;;;;;;;;;;;26.70;94.80;;;;;;5128256;28;19912;-60
2022/09/20 12:08:21;;;;;;;;;;;26.80;94.70;;;;;;5109875;28;19912;-60
2022/09/20 12:11:05;;;;;;;;;;;26.80;94.60;;;;;;5120169;28;20108;-60
2022/09/20 12:13:34;;;;;;;;;;;26.90;94.60;;;;;;5126403;28;20200;-60
2022/09/20 12:16:02;;;;;;;;;;;26.90;94.50;;;;;;5108997;28;20194;-60
2022/09/20 12:18:31;;;;;;;;;;;27.00;94.60;;;;;;5127680;28;19907;-60
2022/09/20 12:20:59;;;;;;;;;;;27.10;94.50;;;;;;5127940;28;19914;-60
2022/09/20 12:23:41;;;;;;;;;;;27.10;94.40;;;;;;5127906;28;19931;-60
2022/09/20 12:26:07;;;;;;;;;;;27.20;94.40;;;;;;5127843;28;20254;-60
2022/09/20 12:28:34;;;;;;;;;;;27.20;94.40;;;;;;5126260;28;19958;-60
2022/09/20 12:31:19;;;;;;;;;;;27.20;94.40;;;;;;5127604;28;20066;-60
2022/09/20 12:33:59;;;;;;;;;;;27.30;94.40;;;;;;5126577;28;19919;-60
2022/09/20 12:36:26;;;;;;;;;;;27.30;94.40;;;;;;5127176;28;19947;-60
2022/09/20 12:39:01;;;;;;;;;;;27.30;94.50;;;;;;5125992;28;19956;-59
2022/09/20 12:41:27;;;;;;;;;;;27.30;94.60;;;;;;5125916;28;19916;-59
2022/09/20 12:43:58;;;;;;;;;;;27.40;94.50;;;;;;5127474;28;19912;-60
2022/09/20 12:46:36;;;;;;;;;;;27.40;94.50;;;;;;5126907;28;19974;-61
2022/09/20 12:55:29;;;;;;;;;;;27.40;94.60;;;;;;5044549;28;19921;-59
2022/09/20 12:58:00;;;;;;;;;;;27.50;94.50;;;;;;5115029;28;19912;-59
2022/09/20 13:00:33;;;;;;;;;;;27.50;94.40;;;;;;5127630;28;19911;-59
2022/09/20 13:02:59;;;;;;;;;;;27.60;94.20;;;;;;5127106;28;20196;-59
2022/09/20 13:05:30;;;;;;;;;;;27.50;93.90;;;;;;5126291;28;19919;-59
2022/09/20 13:08:17;;;;;;;;;;;27.60;93.90;;;;;;5125470;28;19912;-59
2022/09/20 13:10:48;;;;;;;;;;;27.60;93.80;;;;;;5125202;28;19912;-58
2022/09/20 13:13:21;;;;;;;;;;;27.60;93.70;;;;;;5125492;28;20259;-59
2022/09/20 13:15:50;;;;;;;;;;;27.60;93.70;;;;;;5125806;28;19990;-59
2022/09/20 13:18:17;;;;;;;;;;;27.70;93.50;;;;;;5125731;28;19911;-60
2022/09/20 13:20:43;;;;;;;;;;;27.70;93.70;;;;;;5126359;28;19915;-59
2022/09/20 13:23:16;;;;;;;;;;;27.70;93.70;;;;;;5126643;28;20192;-59
2022/09/20 13:25:42;;;;;;;;;;;27.80;93.80;;;;;;5126640;28;19912;-59
2022/09/20 13:28:23;;;;;;;;;;;27.80;93.60;;;;;;5126509;28;19908;-62
2022/09/20 13:30:49;;;;;;;;;;;27.80;93.30;;;;;;5126625;28;19912;-59
2022/09/20 13:33:25;;;;;;;;;;;27.80;93.40;;;;;;5126320;28;19908;-62
2022/09/20 13:35:53;;;;;;;;;;;27.80;93.30;;;;;;5126328;28;19916;-59
2022/09/20 13:38:21;;;;;;;;;;;27.80;93.10;;;;;;5126420;28;19908;-62
2022/09/20 13:40:48;;;;;;;;;;;27.90;92.90;;;;;;5125782;28;19951;-60
2022/09/20 13:43:33;;;;;;;;;;;27.90;93.10;;;;;;5126239;28;19953;-59
2022/09/20 13:46:18;;;;;;;;;;;27.90;93.20;;;;;;5126063;28;19953;-59
2022/09/20 13:48:48;;;;;;;;;;;27.90;93.30;;;;;;5126213;28;20247;-59
2022/09/20 13:51:18;;;;;;;;;;;27.90;93.30;;;;;;5126038;28;20073;-59
2022/09/20 13:53:46;;;;;;;;;;;28.00;93.30;;;;;;5107913;28;20204;-58
2022/09/20 13:56:28;;;;;;;;;;;28.00;93.10;;;;;;5125937;28;19915;-61
2022/09/20 13:58:57;;;;;;;;;;;28.00;93.00;;;;;;5125896;28;19915;-59
2022/09/20 14:01:28;;;;;;;;;;;28.00;93.20;;;;;;5125920;28;20188;-60
2022/09/20 14:03:55;;;;;;;;;;;28.00;93.10;;;;;;5125849;28;19912;-60
2022/09/20 14:06:25;;;;;;;;;;;28.10;93.30;;;;;;5125960;28;19948;-59
2022/09/20 14:08:52;;;;;;;;;;;28.10;93.60;;;;;;5125959;28;19943;-59
2022/09/20 14:11:22;;;;;;;;;;;28.10;93.20;;;;;;5125742;28;20352;-61
2022/09/20 14:13:53;;;;;;;;;;;28.10;93.20;;;;;;5125930;28;19912;-60
2022/09/20 14:16:20;;;;;;;;;;;28.10;93.00;;;;;;5125496;28;19964;-60
2022/09/20 14:18:47;;;;;;;;;;;28.10;93.00;;;;;;5125839;28;19954;-60
2022/09/20 14:21:16;;;;;;;;;;;28.10;93.00;;;;;;5125593;28;20005;-60
2022/09/20 14:23:50;;;;;;;;;;;28.10;93.00;;;;;;5125442;28;19934;-59
2022/09/20 14:26:16;;;;;;;;;;;28.20;93.00;;;;;;5125535;28;19908;-60
2022/09/20 14:28:43;;;;;;;;;;;28.20;93.00;;;;;;5125477;28;19912;-61
2022/09/20 14:31:15;;;;;;;;;;;28.20;93.20;;;;;;5125224;28;19908;-60
2022/09/20 14:33:48;;;;;;;;;;;28.20;93.10;;;;;;5125430;28;19908;-60
2022/09/20 14:36:15;;;;;;;;;;;28.20;93.10;;;;;;5125059;28;19953;-59
2022/09/20 14:38:46;;;;;;;;;;;28.30;93.10;;;;;;5125336;28;19927;-60
2022/09/20 14:41:12;;;;;;;;;;;28.30;92.80;;;;;;5125213;28;19911;-60
2022/09/20 14:43:39;;;;;;;;;;;28.30;92.90;;;;;;5106793;28;20139;-61
2022/09/20 14:46:10;;;;;;;;;;;28.30;93.00;;;;;;5125028;28;19916;-60
2022/09/20 14:48:39;;;;;;;;;;;28.40;93.00;;;;;;5125330;28;20176;-60
2022/09/20 14:51:13;;;;;;;;;;;28.40;92.90;;;;;;5124266;28;19915;-60
2022/09/20 14:53:39;;;;;;;;;;;28.40;92.80;;;;;;5125130;28;19915;-60
2022/09/20 14:56:05;;;;;;;;;;;28.40;92.80;;;;;;5125039;28;20138;-60
2022/09/20 14:58:54;;;;;;;;;;;28.40;92.80;;;;;;5124848;28;19903;-59
2022/09/20 15:01:24;;;;;;;;;;;28.40;92.80;;;;;;5124923;28;19983;-58
2022/09/20 15:03:51;;;;;;;;;;;28.40;92.70;;;;;;5124882;28;19970;-56
2022/09/20 15:06:17;;;;;;;;;;;28.40;92.50;;;;;;5125132;28;19907;-58
2022/09/20 15:08:44;;;;;;;;;;;28.40;92.40;;;;;;5125178;28;20183;-59